createdAt,value
2022-10-20T00:00:00.166Z,1008.52
2022-10-20T00:05:00.157Z,1008.49
2022-10-20T00:10:00.129Z,1008.3
2022-10-20T00:15:00.137Z,1008.28
2022-10-20T00:20:00.149Z,1008.33
2022-10-20T00:25:00.099Z,1008.26
2022-10-20T00:30:00.126Z,1008.27
2022-10-20T00:35:00.094Z,1008.2
2022-10-20T00:40:00.174Z,1008.16
2022-10-20T00:45:00.135Z,1008.09
2022-10-20T00:50:00.101Z,1008.05
2022-10-20T00:55:00.084Z,1007.99
2022-10-20T01:00:00.216Z,1008.01
2022-10-20T01:05:00.089Z,1007.73
2022-10-20T01:10:00.152Z,1007.69
2022-10-20T01:15:00.114Z,1007.67
2022-10-20T01:20:00.165Z,1007.6
2022-10-20T01:25:00.162Z,1007.56
2022-10-20T01:30:00.102Z,1007.55
2022-10-20T01:35:00.093Z,1007.45
2022-10-20T01:40:00.124Z,1007.38
2022-10-20T01:45:00.093Z,1007.28
2022-10-20T01:50:00.100Z,1007.18
2022-10-20T01:55:00.113Z,1007.15
2022-10-20T02:00:00.290Z,1007.09
2022-10-20T02:05:00.092Z,1006.96
2022-10-20T02:10:00.169Z,1006.94
2022-10-20T02:15:00.114Z,1006.81
2022-10-20T02:20:00.127Z,1006.82
2022-10-20T02:25:00.139Z,1006.68
2022-10-20T02:30:00.178Z,1006.55
2022-10-20T02:35:03.451Z,1006.51
2022-10-20T02:40:00.129Z,1006.47
2022-10-20T02:45:00.092Z,1006.45
2022-10-20T02:50:00.120Z,1006.5
2022-10-20T02:55:00.136Z,1006.45
2022-10-20T03:00:00.141Z,1006.51
2022-10-20T03:05:00.137Z,1006.47
2022-10-20T03:10:00.105Z,1006.48
2022-10-20T03:15:00.097Z,1006.41
2022-10-20T03:20:00.143Z,1006.39
2022-10-20T03:25:00.107Z,1006.34
2022-10-20T03:30:00.172Z,1005.8
2022-10-20T03:35:00.092Z,1005.81
2022-10-20T03:40:00.149Z,1005.8
2022-10-20T03:45:00.105Z,1005.77
2022-10-20T03:50:00.215Z,1005.73
2022-10-20T03:55:00.127Z,1005.69
2022-10-20T04:00:00.194Z,1005.49
2022-10-20T04:05:00.168Z,1005.41
2022-10-20T04:10:00.138Z,1005.33
2022-10-20T04:15:00.118Z,1005.32
2022-10-20T04:20:00.151Z,1005.33
2022-10-20T04:25:00.102Z,1005.23
2022-10-20T04:30:00.131Z,1005.29
2022-10-20T04:35:00.120Z,1005.32
2022-10-20T04:40:00.136Z,1005.25
2022-10-20T04:45:00.266Z,1005.22
2022-10-20T04:50:00.091Z,1005.16
2022-10-20T04:55:00.102Z,1005.08
2022-10-20T05:00:00.144Z,1005.1
2022-10-20T05:05:00.104Z,1005.12
2022-10-20T05:10:00.118Z,1005.05
2022-10-20T05:15:00.136Z,1004.97
2022-10-20T05:20:00.144Z,1004.94
2022-10-20T05:25:08.158Z,1004.89
2022-10-20T05:30:00.139Z,1004.9
2022-10-20T05:35:00.115Z,1004.85
2022-10-20T05:40:00.146Z,1004.91
2022-10-20T05:45:00.103Z,1004.86
2022-10-20T05:50:00.090Z,1004.87
2022-10-20T05:55:00.117Z,1004.83
2022-10-20T06:00:00.204Z,1004.8
2022-10-20T06:05:00.098Z,1004.93
2022-10-20T06:10:00.093Z,1004.99
2022-10-20T06:15:00.110Z,1005.06
2022-10-20T06:20:00.144Z,1005.11
2022-10-20T06:25:00.092Z,1005.2
2022-10-20T06:30:00.104Z,1005.09
2022-10-20T06:35:00.105Z,1005.01
2022-10-20T06:40:00.112Z,1005.05
2022-10-20T06:45:00.088Z,1005.15
2022-10-20T06:50:00.103Z,1005.08
2022-10-20T06:55:00.104Z,1004.99
2022-10-20T07:00:00.166Z,1004.96
2022-10-20T07:05:00.100Z,1004.9
2022-10-20T07:10:00.111Z,1005
2022-10-20T07:15:00.082Z,1004.99
2022-10-20T07:20:00.127Z,1005.13
2022-10-20T07:25:00.106Z,1005.02
2022-10-20T07:30:00.117Z,1004.97
2022-10-20T07:35:00.088Z,1004.86
2022-10-20T07:40:00.139Z,1004.84
2022-10-20T07:45:00.110Z,1004.81
2022-10-20T07:50:00.131Z,1004.77
2022-10-20T07:55:06.232Z,1004.74
2022-10-20T08:00:00.172Z,1004.76
2022-10-20T08:05:00.111Z,1004.69
2022-10-20T08:10:00.110Z,1004.7
2022-10-20T08:15:00.131Z,1004.58
2022-10-20T08:20:00.636Z,1004.6
2022-10-20T08:25:00.143Z,1004.58
2022-10-20T08:30:00.479Z,1004.46
2022-10-20T08:35:00.122Z,1004.33
2022-10-20T08:40:00.167Z,1004.45
2022-10-20T08:45:00.118Z,1004.27
2022-10-20T08:50:00.082Z,1004.17
2022-10-20T08:55:00.111Z,1004.15
2022-10-20T09:00:00.135Z,1004.03
2022-10-20T09:05:00.110Z,1004.03
2022-10-20T09:10:00.090Z,1004.23
2022-10-20T09:15:00.097Z,1003.92
2022-10-20T09:20:00.124Z,1003.81
2022-10-20T09:25:00.102Z,1003.81
2022-10-20T09:30:00.135Z,1003.68
2022-10-20T09:35:00.139Z,1003.66
2022-10-20T09:40:00.106Z,1003.44
2022-10-20T09:45:00.088Z,1003.44
2022-10-20T09:50:01.239Z,1003.48
2022-10-20T09:55:00.107Z,1003.34
2022-10-20T10:00:01.356Z,1003.35
2022-10-20T10:05:00.111Z,1003.36
2022-10-20T10:10:01.278Z,1003.42
2022-10-20T10:15:00.102Z,1003.24
2022-10-20T10:20:00.127Z,1003.11
2022-10-20T10:25:00.106Z,1003.15
2022-10-20T10:30:00.113Z,1003.17
2022-10-20T10:35:00.104Z,1002.93
2022-10-20T10:40:00.149Z,1003.06
2022-10-20T10:45:00.085Z,1002.94
2022-10-20T10:50:00.086Z,1002.88
2022-10-20T10:55:00.102Z,1002.86
2022-10-20T11:00:00.159Z,1002.81
2022-10-20T11:05:00.113Z,1002.79
2022-10-20T11:10:00.121Z,1002.83
2022-10-20T11:15:00.102Z,1002.59
2022-10-20T11:20:00.124Z,1002.47
2022-10-20T11:25:00.098Z,1002.49
2022-10-20T11:30:00.123Z,1002.29
2022-10-20T11:35:00.087Z,1002.21
2022-10-20T11:40:03.146Z,1002.13
2022-10-20T11:45:00.114Z,1002.03
2022-10-20T11:50:00.109Z,1001.8
2022-10-20T11:55:00.108Z,1001.96
2022-10-20T12:00:00.151Z,1001.86
2022-10-20T12:05:00.110Z,1001.71
2022-10-20T12:10:00.124Z,1001.6
2022-10-20T12:15:00.096Z,1001.47
2022-10-20T12:20:00.122Z,1001.45
2022-10-20T12:25:00.097Z,1001.26
2022-10-20T12:30:00.123Z,1001.47
2022-10-20T12:35:00.090Z,1001.1
2022-10-20T12:40:00.105Z,1000.92
2022-10-20T12:45:01.278Z,1000.88
2022-10-20T12:50:00.110Z,1000.74
2022-10-20T12:55:00.118Z,1000.66
2022-10-20T13:00:00.166Z,1000.79
2022-10-20T13:05:00.141Z,1000.77
2022-10-20T13:10:01.684Z,1000.77
2022-10-20T13:15:00.195Z,1000.78
2022-10-20T13:20:01.533Z,1000.76
2022-10-20T13:25:00.117Z,1000.76
2022-10-20T13:30:00.094Z,1000.74
2022-10-20T13:35:00.147Z,1000.73
2022-10-20T13:40:00.119Z,1000.8
2022-10-20T13:45:00.152Z,1000.59
2022-10-20T13:50:00.122Z,1000.44
2022-10-20T13:55:00.109Z,1000.37
2022-10-20T14:00:00.172Z,1000.33
2022-10-20T14:05:00.090Z,1000.22
2022-10-20T14:10:00.116Z,1000.22
2022-10-20T14:15:02.045Z,1000.23
2022-10-20T14:20:00.121Z,1000.13
2022-10-20T14:25:00.099Z,1000.29
2022-10-20T14:30:00.215Z,1000.39
2022-10-20T14:35:00.137Z,1000.29
2022-10-20T14:40:00.108Z,1000.21
2022-10-20T14:45:00.098Z,1000.19
2022-10-20T14:50:00.130Z,1000.47
2022-10-20T14:55:00.107Z,1000.48
2022-10-20T15:00:00.143Z,1000.62
2022-10-20T15:05:00.111Z,1000.13
2022-10-20T15:10:04.273Z,999.78
2022-10-20T15:15:00.118Z,1000.24
2022-10-20T15:20:00.133Z,999.76
2022-10-20T15:25:00.100Z,999.74
2022-10-20T15:30:00.102Z,999.67
2022-10-20T15:35:00.122Z,999.57
2022-10-20T15:40:00.114Z,999.68
2022-10-20T15:45:00.091Z,999.83
2022-10-20T15:55:00.102Z,999.59
2022-10-20T16:00:00.231Z,999.6
2022-10-20T16:05:00.096Z,999.55
2022-10-20T16:10:00.116Z,999.47
2022-10-20T16:15:00.092Z,999.45
2022-10-20T16:20:00.133Z,999.4
2022-10-20T16:25:00.120Z,999.3
2022-10-20T16:30:00.160Z,999.3
2022-10-20T16:35:00.135Z,999.39
2022-10-20T16:40:00.127Z,999.33
2022-10-20T16:45:00.104Z,999.28
2022-10-20T16:50:00.194Z,999.15
2022-10-20T16:55:00.136Z,999.12
2022-10-20T17:00:00.160Z,999.32
2022-10-20T17:05:01.299Z,999.42
2022-10-20T17:10:00.100Z,999.67
2022-10-20T17:15:00.117Z,999.63
2022-10-20T17:20:00.141Z,999.49
2022-10-20T17:25:00.095Z,999.45
2022-10-20T17:30:00.202Z,999.31
2022-10-20T17:35:00.139Z,999.39
2022-10-20T17:40:00.135Z,999.41
2022-10-20T17:45:00.116Z,999.52
2022-10-20T17:50:00.185Z,999.41
2022-10-20T17:55:00.152Z,999.35
2022-10-20T18:00:02.728Z,999.26
2022-10-20T18:05:00.117Z,999.16
2022-10-20T18:10:00.142Z,999.19
2022-10-20T18:15:00.121Z,999.21
2022-10-20T18:20:00.199Z,999.16
2022-10-20T18:25:00.100Z,999.12
2022-10-20T18:30:00.095Z,998.98
2022-10-20T18:35:00.100Z,998.95
2022-10-20T18:40:00.160Z,998.85
2022-10-20T18:45:00.126Z,998.86
2022-10-20T18:50:00.113Z,998.81
2022-10-20T18:55:00.121Z,998.85
2022-10-20T19:00:00.166Z,998.66
2022-10-20T19:05:00.095Z,998.65
2022-10-20T19:10:00.134Z,998.52
2022-10-20T19:15:00.097Z,998.4
2022-10-20T19:20:00.133Z,998.34
2022-10-20T19:25:00.097Z,998.29
2022-10-20T19:30:00.198Z,998.34
2022-10-20T19:35:00.095Z,998.29
2022-10-20T19:40:00.179Z,998.23
2022-10-20T19:45:00.123Z,997.99
2022-10-20T19:50:00.119Z,997.74
2022-10-20T19:55:00.127Z,997.44
2022-10-20T20:00:00.169Z,998.19
2022-10-20T20:05:00.120Z,998.63
2022-10-20T20:10:00.096Z,998.87
2022-10-20T20:15:00.181Z,998.81
2022-10-20T20:20:00.134Z,998.89
2022-10-20T20:25:00.088Z,998.82
2022-10-20T20:30:00.097Z,999.07
2022-10-20T20:35:00.240Z,999.16
2022-10-20T20:40:00.119Z,999.01
2022-10-20T20:45:00.138Z,999.12
2022-10-20T20:50:00.137Z,999.09
2022-10-20T20:55:00.114Z,999.14
2022-10-20T21:00:00.160Z,999.18
2022-10-20T21:05:00.088Z,999.07
2022-10-20T21:10:00.087Z,999.08
2022-10-20T21:15:00.109Z,998.95
2022-10-20T21:20:00.138Z,999.09
2022-10-20T21:25:00.123Z,999.02
2022-10-20T21:30:00.119Z,999.14
2022-10-20T21:35:00.106Z,999.14
2022-10-20T21:40:00.186Z,999.06
2022-10-20T21:45:00.106Z,999.06
2022-10-20T21:50:00.104Z,999
2022-10-20T21:55:00.113Z,998.78
2022-10-20T22:00:00.203Z,998.69
2022-10-20T22:05:00.099Z,998.68
2022-10-20T22:10:00.114Z,998.68
2022-10-20T22:15:00.127Z,998.56
2022-10-20T22:20:00.127Z,998.48
2022-10-20T22:25:00.144Z,998.31
2022-10-20T22:30:00.202Z,998.42
2022-10-20T22:35:00.129Z,998.37
2022-10-20T22:40:00.140Z,998.27
2022-10-20T22:45:00.115Z,998.39
2022-10-20T22:50:00.114Z,998.34
2022-10-20T22:55:00.088Z,998.59
2022-10-20T23:00:00.158Z,998.55
2022-10-20T23:05:00.091Z,998.5
2022-10-20T23:10:00.131Z,998.4
2022-10-20T23:15:00.106Z,998.37
2022-10-20T23:20:00.121Z,998.37
2022-10-20T23:25:00.099Z,998.1
2022-10-20T23:30:00.168Z,998.08
2022-10-20T23:35:00.110Z,997.95
2022-10-20T23:40:00.144Z,998.07
2022-10-20T23:45:00.110Z,998.1
2022-10-20T23:50:00.097Z,998.12
2022-10-20T23:55:00.092Z,998.13
